sensor_id;sensor_type;location;lat;lon;timestamp;P1;durP1;ratioP1;P2;durP2;ratioP2
5379;SDS011;2713;42.680;23.310;2023-04-06T00:00:23;9.65;;;7.55;;
5379;SDS011;2713;42.680;23.310;2023-04-06T00:02:50;8.20;;;7.30;;
5379;SDS011;2713;42.680;23.310;2023-04-06T00:05:17;9.20;;;7.05;;
5379;SDS011;2713;42.680;23.310;2023-04-06T00:07:45;7.55;;;6.63;;
5379;SDS011;2713;42.680;23.310;2023-04-06T00:10:11;8.85;;;7.57;;
5379;SDS011;2713;42.680;23.310;2023-04-06T00:12:38;9.10;;;7.05;;
5379;SDS011;2713;42.680;23.310;2023-04-06T00:15:06;7.90;;;7.20;;
5379;SDS011;2713;42.680;23.310;2023-04-06T00:17:34;8.38;;;7.55;;
5379;SDS011;2713;42.680;23.310;2023-04-06T00:20:01;8.50;;;7.60;;
5379;SDS011;2713;42.680;23.310;2023-04-06T00:22:29;8.32;;;7.38;;
5379;SDS011;2713;42.680;23.310;2023-04-06T00:24:56;9.85;;;6.95;;
5379;SDS011;2713;42.680;23.310;2023-04-06T00:27:23;7.28;;;6.55;;
5379;SDS011;2713;42.680;23.310;2023-04-06T00:29:50;7.80;;;7.00;;
5379;SDS011;2713;42.680;23.310;2023-04-06T00:32:17;8.05;;;7.25;;
5379;SDS011;2713;42.680;23.310;2023-04-06T00:34:45;6.45;;;5.82;;
5379;SDS011;2713;42.680;23.310;2023-04-06T00:37:12;7.50;;;6.80;;
5379;SDS011;2713;42.680;23.310;2023-04-06T00:39:38;6.60;;;6.00;;
5379;SDS011;2713;42.680;23.310;2023-04-06T00:42:07;7.15;;;6.45;;
5379;SDS011;2713;42.680;23.310;2023-04-06T00:44:38;7.95;;;6.95;;
5379;SDS011;2713;42.680;23.310;2023-04-06T00:47:05;8.15;;;6.57;;
5379;SDS011;2713;42.680;23.310;2023-04-06T00:49:32;7.38;;;6.68;;
5379;SDS011;2713;42.680;23.310;2023-04-06T00:52:00;9.00;;;7.57;;
5379;SDS011;2713;42.680;23.310;2023-04-06T00:54:28;7.13;;;6.45;;
5379;SDS011;2713;42.680;23.310;2023-04-06T00:56:56;11.38;;;7.22;;
5379;SDS011;2713;42.680;23.310;2023-04-06T00:59:24;7.03;;;6.32;;
5379;SDS011;2713;42.680;23.310;2023-04-06T01:01:52;8.27;;;7.05;;
5379;SDS011;2713;42.680;23.310;2023-04-06T01:04:31;7.40;;;6.50;;
5379;SDS011;2713;42.680;23.310;2023-04-06T01:06:58;6.90;;;6.20;;
5379;SDS011;2713;42.680;23.310;2023-04-06T01:09:33;7.78;;;6.97;;
5379;SDS011;2713;42.680;23.310;2023-04-06T01:12:05;8.40;;;7.03;;
5379;SDS011;2713;42.680;23.310;2023-04-06T01:14:33;6.97;;;6.05;;
5379;SDS011;2713;42.680;23.310;2023-04-06T01:17:00;7.18;;;6.32;;
5379;SDS011;2713;42.680;23.310;2023-04-06T01:19:30;7.85;;;6.45;;
5379;SDS011;2713;42.680;23.310;2023-04-06T01:21:57;6.70;;;6.07;;
5379;SDS011;2713;42.680;23.310;2023-04-06T01:24:31;6.22;;;5.63;;
5379;SDS011;2713;42.680;23.310;2023-04-06T01:27:21;7.97;;;6.30;;
5379;SDS011;2713;42.680;23.310;2023-04-06T01:29:59;6.85;;;5.47;;
5379;SDS011;2713;42.680;23.310;2023-04-06T01:32:49;8.23;;;6.00;;
5379;SDS011;2713;42.680;23.310;2023-04-06T01:35:22;6.40;;;5.72;;
5379;SDS011;2713;42.680;23.310;2023-04-06T01:37:58;6.40;;;5.80;;
5379;SDS011;2713;42.680;23.310;2023-04-06T01:40:31;6.60;;;5.65;;
5379;SDS011;2713;42.680;23.310;2023-04-06T01:42:58;6.93;;;5.93;;
5379;SDS011;2713;42.680;23.310;2023-04-06T01:45:31;7.68;;;6.35;;
5379;SDS011;2713;42.680;23.310;2023-04-06T01:48:07;7.43;;;6.68;;
5379;SDS011;2713;42.680;23.310;2023-04-06T01:50:35;8.18;;;6.00;;
5379;SDS011;2713;42.680;23.310;2023-04-06T01:53:02;6.60;;;6.00;;
5379;SDS011;2713;42.680;23.310;2023-04-06T01:55:31;5.80;;;5.30;;
5379;SDS011;2713;42.680;23.310;2023-04-06T01:58:16;6.75;;;6.05;;
5379;SDS011;2713;42.680;23.310;2023-04-06T02:00:43;7.15;;;6.45;;
5379;SDS011;2713;42.680;23.310;2023-04-06T02:03:11;6.82;;;5.70;;
5379;SDS011;2713;42.680;23.310;2023-04-06T02:05:40;7.32;;;6.07;;
5379;SDS011;2713;42.680;23.310;2023-04-06T02:08:39;6.68;;;5.68;;
5379;SDS011;2713;42.680;23.310;2023-04-06T02:11:07;6.45;;;5.75;;
5379;SDS011;2713;42.680;23.310;2023-04-06T02:13:41;6.90;;;5.75;;
5379;SDS011;2713;42.680;23.310;2023-04-06T02:16:09;6.57;;;5.90;;
5379;SDS011;2713;42.680;23.310;2023-04-06T02:18:36;5.68;;;5.15;;
5379;SDS011;2713;42.680;23.310;2023-04-06T02:21:03;6.88;;;6.18;;
5379;SDS011;2713;42.680;23.310;2023-04-06T02:23:30;6.85;;;6.13;;
5379;SDS011;2713;42.680;23.310;2023-04-06T02:25:57;6.40;;;5.80;;
5379;SDS011;2713;42.680;23.310;2023-04-06T02:28:25;6.45;;;5.85;;
5379;SDS011;2713;42.680;23.310;2023-04-06T02:30:52;8.63;;;6.85;;
5379;SDS011;2713;42.680;23.310;2023-04-06T02:33:23;6.10;;;5.50;;
5379;SDS011;2713;42.680;23.310;2023-04-06T02:35:50;8.20;;;5.85;;
5379;SDS011;2713;42.680;23.310;2023-04-06T02:38:17;7.05;;;6.35;;
5379;SDS011;2713;42.680;23.310;2023-04-06T02:40:44;7.30;;;6.55;;
5379;SDS011;2713;42.680;23.310;2023-04-06T02:43:18;5.90;;;5.40;;
5379;SDS011;2713;42.680;23.310;2023-04-06T02:45:48;6.47;;;5.88;;
5379;SDS011;2713;42.680;23.310;2023-04-06T02:48:15;6.72;;;6.03;;
5379;SDS011;2713;42.680;23.310;2023-04-06T02:50:42;6.75;;;5.95;;
5379;SDS011;2713;42.680;23.310;2023-04-06T02:53:09;5.95;;;5.45;;
5379;SDS011;2713;42.680;23.310;2023-04-06T02:55:37;7.50;;;6.28;;
5379;SDS011;2713;42.680;23.310;2023-04-06T02:58:04;7.38;;;6.57;;
5379;SDS011;2713;42.680;23.310;2023-04-06T03:00:40;5.68;;;5.03;;
5379;SDS011;2713;42.680;23.310;2023-04-06T03:03:08;6.75;;;5.35;;
5379;SDS011;2713;42.680;23.310;2023-04-06T03:05:35;5.85;;;5.25;;
5379;SDS011;2713;42.680;23.310;2023-04-06T03:08:02;6.72;;;6.03;;
5379;SDS011;2713;42.680;23.310;2023-04-06T03:10:41;6.00;;;5.40;;
5379;SDS011;2713;42.680;23.310;2023-04-06T03:13:08;5.68;;;5.18;;
5379;SDS011;2713;42.680;23.310;2023-04-06T03:15:45;6.18;;;5.55;;
5379;SDS011;2713;42.680;23.310;2023-04-06T03:18:17;6.43;;;5.80;;
5379;SDS011;2713;42.680;23.310;2023-04-06T03:20:47;8.27;;;6.43;;
5379;SDS011;2713;42.680;23.310;2023-04-06T03:23:16;8.40;;;6.60;;
5379;SDS011;2713;42.680;23.310;2023-04-06T03:25:44;6.35;;;5.72;;
5379;SDS011;2713;42.680;23.310;2023-04-06T03:28:15;9.25;;;6.95;;
5379;SDS011;2713;42.680;23.310;2023-04-06T03:30:50;8.45;;;6.53;;
5379;SDS011;2713;42.680;23.310;2023-04-06T03:33:24;7.05;;;6.35;;
5379;SDS011;2713;42.680;23.310;2023-04-06T03:35:53;7.90;;;6.85;;
5379;SDS011;2713;42.680;23.310;2023-04-06T03:38:23;9.50;;;7.30;;
5379;SDS011;2713;42.680;23.310;2023-04-06T03:40:50;7.13;;;6.43;;
5379;SDS011;2713;42.680;23.310;2023-04-06T03:43:21;7.00;;;6.07;;
5379;SDS011;2713;42.680;23.310;2023-04-06T03:45:48;7.90;;;6.70;;
5379;SDS011;2713;42.680;23.310;2023-04-06T03:48:15;6.63;;;6.00;;
5379;SDS011;2713;42.680;23.310;2023-04-06T03:50:43;8.02;;;6.80;;
5379;SDS011;2713;42.680;23.310;2023-04-06T03:53:10;6.47;;;5.88;;
5379;SDS011;2713;42.680;23.310;2023-04-06T03:55:37;6.55;;;5.93;;
5379;SDS011;2713;42.680;23.310;2023-04-06T03:58:04;6.13;;;5.40;;
5379;SDS011;2713;42.680;23.310;2023-04-06T04:00:31;7.65;;;6.57;;
5379;SDS011;2713;42.680;23.310;2023-04-06T04:02:59;6.70;;;5.93;;
5379;SDS011;2713;42.680;23.310;2023-04-06T04:05:26;7.20;;;6.35;;
5379;SDS011;2713;42.680;23.310;2023-04-06T04:07:55;8.15;;;6.47;;
5379;SDS011;2713;42.680;23.310;2023-04-06T04:10:25;7.63;;;6.32;;
5379;SDS011;2713;42.680;23.310;2023-04-06T04:12:52;7.18;;;5.50;;
5379;SDS011;2713;42.680;23.310;2023-04-06T04:15:19;6.40;;;5.80;;
5379;SDS011;2713;42.680;23.310;2023-04-06T04:17:46;6.78;;;5.78;;
5379;SDS011;2713;42.680;23.310;2023-04-06T04:20:14;7.32;;;6.05;;
5379;SDS011;2713;42.680;23.310;2023-04-06T04:22:41;7.30;;;6.07;;
5379;SDS011;2713;42.680;23.310;2023-04-06T04:25:11;9.27;;;7.20;;
5379;SDS011;2713;42.680;23.310;2023-04-06T04:27:43;7.53;;;6.20;;
5379;SDS011;2713;42.680;23.310;2023-04-06T04:30:10;9.98;;;6.10;;
5379;SDS011;2713;42.680;23.310;2023-04-06T04:32:37;5.95;;;5.35;;
5379;SDS011;2713;42.680;23.310;2023-04-06T04:35:07;7.22;;;6.13;;
5379;SDS011;2713;42.680;23.310;2023-04-06T04:37:38;8.50;;;6.80;;
5379;SDS011;2713;42.680;23.310;2023-04-06T04:40:06;6.43;;;5.68;;
5379;SDS011;2713;42.680;23.310;2023-04-06T04:42:44;6.80;;;6.07;;
5379;SDS011;2713;42.680;23.310;2023-04-06T04:45:18;9.80;;;7.22;;
5379;SDS011;2713;42.680;23.310;2023-04-06T04:47:45;6.93;;;6.05;;
5379;SDS011;2713;42.680;23.310;2023-04-06T04:50:14;9.55;;;6.75;;
5379;SDS011;2713;42.680;23.310;2023-04-06T04:52:44;7.93;;;6.40;;
5379;SDS011;2713;42.680;23.310;2023-04-06T04:55:15;6.60;;;5.75;;
5379;SDS011;2713;42.680;23.310;2023-04-06T04:57:47;8.13;;;7.28;;
5379;SDS011;2713;42.680;23.310;2023-04-06T05:00:15;8.32;;;7.07;;
5379;SDS011;2713;42.680;23.310;2023-04-06T05:02:43;12.23;;;7.90;;
5379;SDS011;2713;42.680;23.310;2023-04-06T05:05:30;8.57;;;7.43;;
5379;SDS011;2713;42.680;23.310;2023-04-06T05:07:58;9.00;;;7.07;;
5379;SDS011;2713;42.680;23.310;2023-04-06T05:10:36;9.60;;;7.25;;
5379;SDS011;2713;42.680;23.310;2023-04-06T05:13:05;9.63;;;6.70;;
5379;SDS011;2713;42.680;23.310;2023-04-06T05:15:32;8.60;;;6.47;;
5379;SDS011;2713;42.680;23.310;2023-04-06T05:18:07;9.60;;;7.28;;
5379;SDS011;2713;42.680;23.310;2023-04-06T05:20:34;7.75;;;6.95;;
5379;SDS011;2713;42.680;23.310;2023-04-06T05:23:02;9.02;;;6.75;;
5379;SDS011;2713;42.680;23.310;2023-04-06T05:25:30;11.23;;;8.55;;
5379;SDS011;2713;42.680;23.310;2023-04-06T05:28:05;8.82;;;7.45;;
5379;SDS011;2713;42.680;23.310;2023-04-06T05:30:35;7.93;;;6.90;;
5379;SDS011;2713;42.680;23.310;2023-04-06T05:33:02;8.32;;;7.05;;
5379;SDS011;2713;42.680;23.310;2023-04-06T05:35:41;8.75;;;7.13;;
5379;SDS011;2713;42.680;23.310;2023-04-06T05:38:11;8.80;;;7.30;;
5379;SDS011;2713;42.680;23.310;2023-04-06T05:40:38;11.80;;;7.85;;
5379;SDS011;2713;42.680;23.310;2023-04-06T05:43:10;11.50;;;7.60;;
5379;SDS011;2713;42.680;23.310;2023-04-06T05:45:41;11.10;;;8.18;;
5379;SDS011;2713;42.680;23.310;2023-04-06T05:48:10;11.10;;;8.13;;
5379;SDS011;2713;42.680;23.310;2023-04-06T05:50:37;9.98;;;7.75;;
5379;SDS011;2713;42.680;23.310;2023-04-06T05:53:05;10.15;;;8.20;;
5379;SDS011;2713;42.680;23.310;2023-04-06T05:55:38;10.93;;;8.20;;
5379;SDS011;2713;42.680;23.310;2023-04-06T05:58:11;9.48;;;8.13;;
5379;SDS011;2713;42.680;23.310;2023-04-06T06:00:38;10.43;;;7.72;;
5379;SDS011;2713;42.680;23.310;2023-04-06T06:03:07;14.93;;;7.35;;
5379;SDS011;2713;42.680;23.310;2023-04-06T06:05:34;13.93;;;10.07;;
5379;SDS011;2713;42.680;23.310;2023-04-06T06:08:12;12.60;;;10.07;;
5379;SDS011;2713;42.680;23.310;2023-04-06T06:10:40;11.98;;;9.30;;
5379;SDS011;2713;42.680;23.310;2023-04-06T06:13:09;10.25;;;8.20;;
5379;SDS011;2713;42.680;23.310;2023-04-06T06:15:37;10.73;;;8.95;;
5379;SDS011;2713;42.680;23.310;2023-04-06T06:18:04;14.13;;;9.55;;
5379;SDS011;2713;42.680;23.310;2023-04-06T06:20:32;15.82;;;9.90;;
5379;SDS011;2713;42.680;23.310;2023-04-06T06:23:02;13.70;;;10.48;;
5379;SDS011;2713;42.680;23.310;2023-04-06T06:25:29;14.20;;;9.93;;
5379;SDS011;2713;42.680;23.310;2023-04-06T06:27:57;15.43;;;10.07;;
5379;SDS011;2713;42.680;23.310;2023-04-06T06:30:25;12.52;;;9.68;;
5379;SDS011;2713;42.680;23.310;2023-04-06T06:32:54;13.85;;;9.35;;
5379;SDS011;2713;42.680;23.310;2023-04-06T06:35:21;12.55;;;9.57;;
5379;SDS011;2713;42.680;23.310;2023-04-06T06:37:48;10.75;;;9.50;;
5379;SDS011;2713;42.680;23.310;2023-04-06T06:40:18;16.63;;;10.90;;
5379;SDS011;2713;42.680;23.310;2023-04-06T06:42:47;13.00;;;9.38;;
5379;SDS011;2713;42.680;23.310;2023-04-06T06:45:20;14.18;;;9.35;;
5379;SDS011;2713;42.680;23.310;2023-04-06T06:47:47;11.13;;;9.10;;
5379;SDS011;2713;42.680;23.310;2023-04-06T06:50:16;11.45;;;8.35;;
5379;SDS011;2713;42.680;23.310;2023-04-06T06:52:44;12.63;;;8.57;;
5379;SDS011;2713;42.680;23.310;2023-04-06T06:55:11;12.20;;;9.00;;
5379;SDS011;2713;42.680;23.310;2023-04-06T06:57:37;9.20;;;7.80;;
5379;SDS011;2713;42.680;23.310;2023-04-06T07:00:06;9.10;;;7.63;;
5379;SDS011;2713;42.680;23.310;2023-04-06T07:02:34;15.13;;;9.70;;
5379;SDS011;2713;42.680;23.310;2023-04-06T07:05:02;10.85;;;8.68;;
5379;SDS011;2713;42.680;23.310;2023-04-06T07:07:31;11.52;;;8.52;;
5379;SDS011;2713;42.680;23.310;2023-04-06T07:09:58;14.00;;;9.68;;
5379;SDS011;2713;42.680;23.310;2023-04-06T07:12:25;8.95;;;7.25;;
5379;SDS011;2713;42.680;23.310;2023-04-06T07:14:52;12.77;;;8.98;;
5379;SDS011;2713;42.680;23.310;2023-04-06T07:17:19;12.23;;;8.52;;
5379;SDS011;2713;42.680;23.310;2023-04-06T07:19:46;10.20;;;7.85;;
5379;SDS011;2713;42.680;23.310;2023-04-06T07:22:13;12.00;;;9.00;;
5379;SDS011;2713;42.680;23.310;2023-04-06T07:24:41;12.63;;;9.57;;
5379;SDS011;2713;42.680;23.310;2023-04-06T07:27:08;11.45;;;8.43;;
5379;SDS011;2713;42.680;23.310;2023-04-06T07:29:35;12.30;;;9.10;;
5379;SDS011;2713;42.680;23.310;2023-04-06T07:32:02;11.15;;;8.55;;
5379;SDS011;2713;42.680;23.310;2023-04-06T07:34:30;11.10;;;8.65;;
5379;SDS011;2713;42.680;23.310;2023-04-06T07:36:58;12.13;;;8.57;;
5379;SDS011;2713;42.680;23.310;2023-04-06T07:39:26;11.18;;;8.75;;
5379;SDS011;2713;42.680;23.310;2023-04-06T07:41:57;10.63;;;8.32;;
5379;SDS011;2713;42.680;23.310;2023-04-06T07:44:24;14.38;;;9.63;;
5379;SDS011;2713;42.680;23.310;2023-04-06T07:46:51;11.55;;;9.18;;
5379;SDS011;2713;42.680;23.310;2023-04-06T07:49:21;11.00;;;8.60;;
5379;SDS011;2713;42.680;23.310;2023-04-06T07:51:48;11.07;;;8.45;;
5379;SDS011;2713;42.680;23.310;2023-04-06T07:54:15;11.43;;;8.55;;
5379;SDS011;2713;42.680;23.310;2023-04-06T07:56:42;10.43;;;8.68;;
5379;SDS011;2713;42.680;23.310;2023-04-06T07:59:11;12.82;;;9.50;;
5379;SDS011;2713;42.680;23.310;2023-04-06T08:01:38;11.15;;;9.10;;
5379;SDS011;2713;42.680;23.310;2023-04-06T08:04:05;12.85;;;9.27;;
5379;SDS011;2713;42.680;23.310;2023-04-06T08:06:32;9.93;;;7.60;;
5379;SDS011;2713;42.680;23.310;2023-04-06T08:09:00;11.68;;;8.80;;
5379;SDS011;2713;42.680;23.310;2023-04-06T08:11:26;12.50;;;11.00;;
5379;SDS011;2713;42.680;23.310;2023-04-06T08:13:53;10.80;;;7.82;;
5379;SDS011;2713;42.680;23.310;2023-04-06T08:16:23;9.57;;;7.82;;
5379;SDS011;2713;42.680;23.310;2023-04-06T08:18:50;11.05;;;8.73;;
5379;SDS011;2713;42.680;23.310;2023-04-06T08:21:16;11.53;;;8.30;;
5379;SDS011;2713;42.680;23.310;2023-04-06T08:23:44;9.30;;;8.30;;
5379;SDS011;2713;42.680;23.310;2023-04-06T08:26:11;11.45;;;9.63;;
5379;SDS011;2713;42.680;23.310;2023-04-06T08:28:38;14.37;;;9.83;;
5379;SDS011;2713;42.680;23.310;2023-04-06T08:31:05;10.77;;;8.63;;
5379;SDS011;2713;42.680;23.310;2023-04-06T08:33:33;9.67;;;8.40;;
5379;SDS011;2713;42.680;23.310;2023-04-06T08:36:07;9.43;;;8.43;;
5379;SDS011;2713;42.680;23.310;2023-04-06T08:38:35;11.20;;;8.80;;
5379;SDS011;2713;42.680;23.310;2023-04-06T08:41:06;10.40;;;8.33;;
5379;SDS011;2713;42.680;23.310;2023-04-06T08:43:34;10.93;;;8.60;;
5379;SDS011;2713;42.680;23.310;2023-04-06T08:46:08;10.23;;;8.30;;
5379;SDS011;2713;42.680;23.310;2023-04-06T08:48:37;10.10;;;7.67;;
5379;SDS011;2713;42.680;23.310;2023-04-06T08:51:05;11.17;;;7.50;;
5379;SDS011;2713;42.680;23.310;2023-04-06T08:53:32;8.65;;;7.75;;
5379;SDS011;2713;42.680;23.310;2023-04-06T08:55:59;10.00;;;8.50;;
5379;SDS011;2713;42.680;23.310;2023-04-06T08:58:28;10.10;;;8.10;;
5379;SDS011;2713;42.680;23.310;2023-04-06T09:01:00;10.85;;;8.35;;
5379;SDS011;2713;42.680;23.310;2023-04-06T09:03:28;8.80;;;7.90;;
5379;SDS011;2713;42.680;23.310;2023-04-06T09:05:59;8.95;;;7.70;;
5379;SDS011;2713;42.680;23.310;2023-04-06T09:08:26;10.02;;;7.70;;
5379;SDS011;2713;42.680;23.310;2023-04-06T09:10:52;11.95;;;8.15;;
5379;SDS011;2713;42.680;23.310;2023-04-06T09:13:19;9.48;;;8.10;;
5379;SDS011;2713;42.680;23.310;2023-04-06T09:15:46;10.33;;;7.70;;
5379;SDS011;2713;42.680;23.310;2023-04-06T09:18:27;12.40;;;7.87;;
5379;SDS011;2713;42.680;23.310;2023-04-06T09:21:00;10.60;;;8.90;;
5379;SDS011;2713;42.680;23.310;2023-04-06T09:23:28;11.77;;;8.30;;
5379;SDS011;2713;42.680;23.310;2023-04-06T09:26:07;10.77;;;9.37;;
5379;SDS011;2713;42.680;23.310;2023-04-06T09:28:42;11.40;;;8.93;;
5379;SDS011;2713;42.680;23.310;2023-04-06T09:31:11;11.13;;;8.40;;
5379;SDS011;2713;42.680;23.310;2023-04-06T09:33:38;10.73;;;8.40;;
5379;SDS011;2713;42.680;23.310;2023-04-06T09:36:07;9.40;;;8.43;;
5379;SDS011;2713;42.680;23.310;2023-04-06T09:38:36;9.67;;;7.90;;
5379;SDS011;2713;42.680;23.310;2023-04-06T09:41:03;10.30;;;8.83;;
5379;SDS011;2713;42.680;23.310;2023-04-06T09:43:30;10.77;;;8.70;;
5379;SDS011;2713;42.680;23.310;2023-04-06T09:45:57;10.00;;;8.77;;
5379;SDS011;2713;42.680;23.310;2023-04-06T09:48:28;11.77;;;9.27;;
5379;SDS011;2713;42.680;23.310;2023-04-06T09:51:00;14.30;;;8.93;;
5379;SDS011;2713;42.680;23.310;2023-04-06T09:53:32;11.07;;;9.00;;
5379;SDS011;2713;42.680;23.310;2023-04-06T09:56:03;9.32;;;8.32;;
5379;SDS011;2713;42.680;23.310;2023-04-06T09:58:34;14.17;;;9.07;;
5379;SDS011;2713;42.680;23.310;2023-04-06T10:01:05;12.17;;;8.07;;
5379;SDS011;2713;42.680;23.310;2023-04-06T10:03:36;9.90;;;7.87;;
5379;SDS011;2713;42.680;23.310;2023-04-06T10:06:11;10.70;;;8.40;;
5379;SDS011;2713;42.680;23.310;2023-04-06T10:08:42;10.13;;;8.90;;
5379;SDS011;2713;42.680;23.310;2023-04-06T10:11:14;8.57;;;7.67;;
5379;SDS011;2713;42.680;23.310;2023-04-06T10:13:41;8.37;;;7.50;;
5379;SDS011;2713;42.680;23.310;2023-04-06T10:16:09;12.17;;;9.40;;
5379;SDS011;2713;42.680;23.310;2023-04-06T10:18:36;8.60;;;7.57;;
5379;SDS011;2713;42.680;23.310;2023-04-06T10:21:06;9.97;;;8.90;;
5379;SDS011;2713;42.680;23.310;2023-04-06T10:23:39;17.50;;;9.80;;
5379;SDS011;2713;42.680;23.310;2023-04-06T10:26:12;9.07;;;8.00;;
5379;SDS011;2713;42.680;23.310;2023-04-06T10:28:41;8.90;;;8.00;;
5379;SDS011;2713;42.680;23.310;2023-04-06T10:31:09;10.90;;;8.57;;
5379;SDS011;2713;42.680;23.310;2023-04-06T10:33:36;9.55;;;7.65;;
5379;SDS011;2713;42.680;23.310;2023-04-06T10:36:10;12.80;;;10.40;;
5379;SDS011;2713;42.680;23.310;2023-04-06T10:38:38;8.52;;;7.57;;
5379;SDS011;2713;42.680;23.310;2023-04-06T10:41:07;7.80;;;6.97;;
5379;SDS011;2713;42.680;23.310;2023-04-06T10:43:35;9.00;;;7.20;;
5379;SDS011;2713;42.680;23.310;2023-04-06T10:46:03;10.55;;;8.38;;
5379;SDS011;2713;42.680;23.310;2023-04-06T10:48:37;10.47;;;8.23;;
5379;SDS011;2713;42.680;23.310;2023-04-06T10:51:09;9.55;;;8.55;;
5379;SDS011;2713;42.680;23.310;2023-04-06T10:53:37;8.90;;;8.00;;
5379;SDS011;2713;42.680;23.310;2023-04-06T10:56:04;10.93;;;7.73;;
5379;SDS011;2713;42.680;23.310;2023-04-06T10:58:38;9.97;;;8.47;;
5379;SDS011;2713;42.680;23.310;2023-04-06T11:01:10;9.50;;;8.50;;
5379;SDS011;2713;42.680;23.310;2023-04-06T11:03:42;11.40;;;8.73;;
5379;SDS011;2713;42.680;23.310;2023-04-06T11:06:10;10.03;;;9.03;;
5379;SDS011;2713;42.680;23.310;2023-04-06T11:08:37;9.20;;;8.20;;
5379;SDS011;2713;42.680;23.310;2023-04-06T11:11:05;14.57;;;10.43;;
5379;SDS011;2713;42.680;23.310;2023-04-06T11:13:41;12.80;;;8.20;;
5379;SDS011;2713;42.680;23.310;2023-04-06T11:16:12;10.50;;;8.70;;
5379;SDS011;2713;42.680;23.310;2023-04-06T11:18:47;11.47;;;8.90;;
5379;SDS011;2713;42.680;23.310;2023-04-06T11:21:15;8.97;;;8.07;;
5379;SDS011;2713;42.680;23.310;2023-04-06T11:23:42;10.60;;;9.07;;
5379;SDS011;2713;42.680;23.310;2023-04-06T11:26:10;9.77;;;8.80;;
5379;SDS011;2713;42.680;23.310;2023-04-06T11:28:38;12.20;;;9.00;;
5379;SDS011;2713;42.680;23.310;2023-04-06T11:31:07;10.37;;;8.90;;
5379;SDS011;2713;42.680;23.310;2023-04-06T11:33:35;10.33;;;8.60;;
5379;SDS011;2713;42.680;23.310;2023-04-06T11:36:03;9.67;;;8.67;;
5379;SDS011;2713;42.680;23.310;2023-04-06T11:38:30;10.37;;;9.27;;
5379;SDS011;2713;42.680;23.310;2023-04-06T11:40:57;9.77;;;8.30;;
5379;SDS011;2713;42.680;23.310;2023-04-06T11:43:27;10.13;;;8.77;;
5379;SDS011;2713;42.680;23.310;2023-04-06T11:45:59;9.97;;;8.97;;
5379;SDS011;2713;42.680;23.310;2023-04-06T11:48:31;11.83;;;8.70;;
5379;SDS011;2713;42.680;23.310;2023-04-06T11:50:59;10.50;;;7.63;;
5379;SDS011;2713;42.680;23.310;2023-04-06T11:53:27;8.60;;;7.70;;
5379;SDS011;2713;42.680;23.310;2023-04-06T11:55:54;9.20;;;8.30;;
5379;SDS011;2713;42.680;23.310;2023-04-06T11:58:22;8.63;;;7.20;;
5379;SDS011;2713;42.680;23.310;2023-04-06T12:01:03;8.70;;;7.90;;
5379;SDS011;2713;42.680;23.310;2023-04-06T12:03:32;13.73;;;9.30;;
5379;SDS011;2713;42.680;23.310;2023-04-06T12:05:58;10.13;;;8.00;;
5379;SDS011;2713;42.680;23.310;2023-04-06T12:08:25;10.50;;;8.97;;
5379;SDS011;2713;42.680;23.310;2023-04-06T12:10:52;9.90;;;7.47;;
5379;SDS011;2713;42.680;23.310;2023-04-06T12:13:19;10.67;;;8.80;;
5379;SDS011;2713;42.680;23.310;2023-04-06T12:15:46;9.27;;;8.07;;
5379;SDS011;2713;42.680;23.310;2023-04-06T12:18:13;9.83;;;8.77;;
5379;SDS011;2713;42.680;23.310;2023-04-06T12:20:41;11.13;;;8.27;;
5379;SDS011;2713;42.680;23.310;2023-04-06T12:23:08;9.40;;;8.13;;
5379;SDS011;2713;42.680;23.310;2023-04-06T12:25:35;10.03;;;8.00;;
5379;SDS011;2713;42.680;23.310;2023-04-06T12:28:02;9.70;;;7.90;;
5379;SDS011;2713;42.680;23.310;2023-04-06T12:30:29;9.63;;;7.83;;
5379;SDS011;2713;42.680;23.310;2023-04-06T12:32:57;8.50;;;7.40;;
5379;SDS011;2713;42.680;23.310;2023-04-06T12:35:24;9.47;;;7.60;;
5379;SDS011;2713;42.680;23.310;2023-04-06T12:37:52;9.47;;;8.13;;
5379;SDS011;2713;42.680;23.310;2023-04-06T12:40:20;9.20;;;7.33;;
5379;SDS011;2713;42.680;23.310;2023-04-06T12:42:47;12.30;;;7.23;;
5379;SDS011;2713;42.680;23.310;2023-04-06T12:45:13;11.10;;;7.93;;
5379;SDS011;2713;42.680;23.310;2023-04-06T12:47:40;8.53;;;7.63;;
5379;SDS011;2713;42.680;23.310;2023-04-06T12:50:07;8.70;;;7.80;;
5379;SDS011;2713;42.680;23.310;2023-04-06T12:52:35;10.30;;;8.27;;
5379;SDS011;2713;42.680;23.310;2023-04-06T12:55:03;10.70;;;8.23;;
5379;SDS011;2713;42.680;23.310;2023-04-06T12:57:31;10.53;;;9.03;;
5379;SDS011;2713;42.680;23.310;2023-04-06T12:59:58;10.33;;;8.80;;
5379;SDS011;2713;42.680;23.310;2023-04-06T13:02:25;12.63;;;9.00;;
5379;SDS011;2713;42.680;23.310;2023-04-06T13:04:52;10.33;;;9.27;;
5379;SDS011;2713;42.680;23.310;2023-04-06T13:07:19;8.13;;;7.43;;
5379;SDS011;2713;42.680;23.310;2023-04-06T13:09:46;9.10;;;8.00;;
5379;SDS011;2713;42.680;23.310;2023-04-06T13:12:16;10.43;;;9.43;;
5379;SDS011;2713;42.680;23.310;2023-04-06T13:14:42;10.10;;;8.63;;
5379;SDS011;2713;42.680;23.310;2023-04-06T13:17:09;11.17;;;8.63;;
5379;SDS011;2713;42.680;23.310;2023-04-06T13:19:36;11.10;;;8.87;;
5379;SDS011;2713;42.680;23.310;2023-04-06T13:22:03;10.30;;;8.87;;
5379;SDS011;2713;42.680;23.310;2023-04-06T13:24:30;9.30;;;8.40;;
5379;SDS011;2713;42.680;23.310;2023-04-06T13:26:56;10.83;;;9.70;;
5379;SDS011;2713;42.680;23.310;2023-04-06T13:29:25;10.67;;;9.10;;
5379;SDS011;2713;42.680;23.310;2023-04-06T13:31:52;11.67;;;9.10;;
5379;SDS011;2713;42.680;23.310;2023-04-06T13:34:19;10.97;;;9.77;;
5379;SDS011;2713;42.680;23.310;2023-04-06T13:36:46;9.10;;;8.30;;
5379;SDS011;2713;42.680;23.310;2023-04-06T13:39:13;12.07;;;9.13;;
5379;SDS011;2713;42.680;23.310;2023-04-06T13:41:40;10.70;;;8.40;;
5379;SDS011;2713;42.680;23.310;2023-04-06T13:44:07;9.20;;;7.87;;
5379;SDS011;2713;42.680;23.310;2023-04-06T13:46:35;10.80;;;8.00;;
5379;SDS011;2713;42.680;23.310;2023-04-06T13:49:02;8.60;;;7.33;;
5379;SDS011;2713;42.680;23.310;2023-04-06T13:51:29;9.27;;;8.30;;
5379;SDS011;2713;42.680;23.310;2023-04-06T13:53:56;8.20;;;6.97;;
5379;SDS011;2713;42.680;23.310;2023-04-06T13:56:22;8.10;;;7.40;;
5379;SDS011;2713;42.680;23.310;2023-04-06T13:58:50;8.93;;;7.50;;
5379;SDS011;2713;42.680;23.310;2023-04-06T14:01:20;8.00;;;7.30;;
5379;SDS011;2713;42.680;23.310;2023-04-06T14:03:49;9.07;;;8.17;;
5379;SDS011;2713;42.680;23.310;2023-04-06T14:06:16;7.67;;;6.97;;
5379;SDS011;2713;42.680;23.310;2023-04-06T14:08:42;9.43;;;8.53;;
5379;SDS011;2713;42.680;23.310;2023-04-06T14:11:12;8.93;;;7.93;;
5379;SDS011;2713;42.680;23.310;2023-04-06T14:13:40;8.97;;;7.73;;
5379;SDS011;2713;42.680;23.310;2023-04-06T14:16:07;7.60;;;6.90;;
5379;SDS011;2713;42.680;23.310;2023-04-06T14:18:35;9.63;;;7.87;;
5379;SDS011;2713;42.680;23.310;2023-04-06T14:21:04;7.87;;;7.07;;
5379;SDS011;2713;42.680;23.310;2023-04-06T14:23:31;8.73;;;7.83;;
5379;SDS011;2713;42.680;23.310;2023-04-06T14:26:01;8.63;;;7.70;;
5379;SDS011;2713;42.680;23.310;2023-04-06T14:28:30;9.20;;;7.97;;
5379;SDS011;2713;42.680;23.310;2023-04-06T14:30:58;8.33;;;7.53;;
5379;SDS011;2713;42.680;23.310;2023-04-06T14:33:25;10.80;;;7.40;;
5379;SDS011;2713;42.680;23.310;2023-04-06T14:35:52;11.00;;;8.47;;
5379;SDS011;2713;42.680;23.310;2023-04-06T14:38:20;9.63;;;8.03;;
5379;SDS011;2713;42.680;23.310;2023-04-06T14:40:47;9.30;;;8.03;;
5379;SDS011;2713;42.680;23.310;2023-04-06T14:43:14;10.37;;;9.27;;
5379;SDS011;2713;42.680;23.310;2023-04-06T14:45:41;10.63;;;8.20;;
5379;SDS011;2713;42.680;23.310;2023-04-06T14:48:08;10.80;;;8.70;;
5379;SDS011;2713;42.680;23.310;2023-04-06T14:50:37;11.10;;;8.30;;
5379;SDS011;2713;42.680;23.310;2023-04-06T14:53:04;15.40;;;12.40;;
5379;SDS011;2713;42.680;23.310;2023-04-06T14:55:32;11.17;;;9.33;;
5379;SDS011;2713;42.680;23.310;2023-04-06T14:58:05;9.63;;;8.63;;
5379;SDS011;2713;42.680;23.310;2023-04-06T15:00:32;12.87;;;9.37;;
5379;SDS011;2713;42.680;23.310;2023-04-06T15:02:59;9.03;;;8.13;;
5379;SDS011;2713;42.680;23.310;2023-04-06T15:05:25;10.20;;;8.93;;